sensor_id;sensor_type;location;lat;lon;timestamp;pressure;altitude;pressure_sealevel;temperature;humidity
2000;BME280;1001;48.87406500;9.59633600;2022-12-18T00:00:46;95958.19;;;-6.87;100.00
2000;BME280;1001;48.87406500;9.59633600;2022-12-18T00:03:14;95955.25;;;-6.94;100.00
2000;BME280;1001;48.87406500;9.59633600;2022-12-18T00:05:46;95966.75;;;-6.88;100.00
2000;BME280;1001;48.87406500;9.59633600;2022-12-18T00:08:13;95949.03;;;-7.03;100.00
2000;BME280;1001;48.87406500;9.59633600;2022-12-18T00:10:39;95961.34;;;-6.84;100.00
2000;BME280;1001;48.87406500;9.59633600;2022-12-18T00:13:06;95967.13;;;-6.82;100.00
2000;BME280;1001;48.87406500;9.59633600;2022-12-18T00:15:34;95966.19;;;-6.81;100.00
2000;BME280;1001;48.87406500;9.59633600;2022-12-18T00:18:01;95965.41;;;-6.81;100.00
2000;BME280;1001;48.87406500;9.59633600;2022-12-18T00:20:28;95967.03;;;-6.80;100.00
2000;BME280;1001;48.87406500;9.59633600;2022-12-18T00:22:55;95958.81;;;-6.84;100.00
2000;BME280;1001;48.87406500;9.59633600;2022-12-18T00:25:22;95975.56;;;-6.81;100.00
2000;BME280;1001;48.87406500;9.59633600;2022-12-18T00:27:49;95971.81;;;-6.88;100.00
2000;BME280;1001;48.87406500;9.59633600;2022-12-18T00:30:15;95973.44;;;-6.87;100.00
2000;BME280;1001;48.87406500;9.59633600;2022-12-18T00:32:44;95966.53;;;-6.98;100.00
2000;BME280;1001;48.87406500;9.59633600;2022-12-18T00:35:11;95969.06;;;-6.85;100.00
2000;BME280;1001;48.87406500;9.59633600;2022-12-18T00:37:37;95962.94;;;-6.83;100.00
2000;BME280;1001;48.87406500;9.59633600;2022-12-18T00:40:05;95969.34;;;-6.90;100.00
2000;BME280;1001;48.87406500;9.59633600;2022-12-18T00:42:32;95969.56;;;-6.93;100.00
2000;BME280;1001;48.87406500;9.59633600;2022-12-18T00:45:16;95960.31;;;-6.94;100.00
2000;BME280;1001;48.87406500;9.59633600;2022-12-18T00:47:44;95965.59;;;-6.97;100.00
2000;BME280;1001;48.87406500;9.59633600;2022-12-18T00:50:11;95976.06;;;-7.02;100.00
2000;BME280;1001;48.87406500;9.59633600;2022-12-18T00:52:40;95971.69;;;-7.00;100.00
2000;BME280;1001;48.87406500;9.59633600;2022-12-18T00:55:07;95969.88;;;-6.98;100.00
2000;BME280;1001;48.87406500;9.59633600;2022-12-18T00:57:33;95972.81;;;-7.04;100.00
2000;BME280;1001;48.87406500;9.59633600;2022-12-18T01:00:00;95964.34;;;-7.17;100.00
2000;BME280;1001;48.87406500;9.59633600;2022-12-18T01:02:27;95959.91;;;-7.13;100.00
2000;BME280;1001;48.87406500;9.59633600;2022-12-18T01:04:55;95957.97;;;-7.10;100.00
2000;BME280;1001;48.87406500;9.59633600;2022-12-18T01:07:22;95948.91;;;-7.14;100.00
2000;BME280;1001;48.87406500;9.59633600;2022-12-18T01:09:48;95953.94;;;-7.12;100.00
2000;BME280;1001;48.87406500;9.59633600;2022-12-18T01:12:15;95962.03;;;-7.07;100.00
2000;BME280;1001;48.87406500;9.59633600;2022-12-18T01:14:42;95969.34;;;-7.03;100.00
2000;BME280;1001;48.87406500;9.59633600;2022-12-18T01:17:09;95974.72;;;-7.07;100.00
2000;BME280;1001;48.87406500;9.59633600;2022-12-18T01:19:35;95969.75;;;-7.09;100.00
2000;BME280;1001;48.87406500;9.59633600;2022-12-18T01:22:03;95957.88;;;-7.08;100.00
2000;BME280;1001;48.87406500;9.59633600;2022-12-18T01:24:30;95951.06;;;-7.08;100.00
2000;BME280;1001;48.87406500;9.59633600;2022-12-18T01:26:57;95958.28;;;-7.02;100.00
2000;BME280;1001;48.87406500;9.59633600;2022-12-18T01:29:24;95960.13;;;-7.04;100.00
2000;BME280;1001;48.87406500;9.59633600;2022-12-18T01:31:50;95970.41;;;-7.05;100.00
2000;BME280;1001;48.87406500;9.59633600;2022-12-18T01:34:17;95979.22;;;-7.11;100.00
2000;BME280;1001;48.87406500;9.59633600;2022-12-18T01:36:44;95983.25;;;-7.21;100.00
2000;BME280;1001;48.87406500;9.59633600;2022-12-18T01:39:13;95988.53;;;-7.24;100.00
2000;BME280;1001;48.87406500;9.59633600;2022-12-18T01:41:41;95984.19;;;-7.22;100.00
2000;BME280;1001;48.87406500;9.59633600;2022-12-18T01:47:35;95982.28;;;-7.06;100.00
2000;BME280;1001;48.87406500;9.59633600;2022-12-18T01:50:07;95992.03;;;-7.12;100.00
2000;BME280;1001;48.87406500;9.59633600;2022-12-18T01:52:34;95977.38;;;-7.09;100.00
2000;BME280;1001;48.87406500;9.59633600;2022-12-18T01:55:05;95980.13;;;-7.12;100.00
2000;BME280;1001;48.87406500;9.59633600;2022-12-18T01:57:33;95973.44;;;-7.13;100.00
2000;BME280;1001;48.87406500;9.59633600;2022-12-18T02:00:03;95974.72;;;-7.07;100.00
2000;BME280;1001;48.87406500;9.59633600;2022-12-18T02:02:30;95968.44;;;-7.14;100.00
2000;BME280;1001;48.87406500;9.59633600;2022-12-18T02:04:56;95966.81;;;-7.15;100.00
2000;BME280;1001;48.87406500;9.59633600;2022-12-18T02:07:31;95967.13;;;-7.20;100.00
2000;BME280;1001;48.87406500;9.59633600;2022-12-18T02:10:07;95965.91;;;-7.27;100.00
2000;BME280;1001;48.87406500;9.59633600;2022-12-18T02:12:42;95963.75;;;-7.33;100.00
2000;BME280;1001;48.87406500;9.59633600;2022-12-18T02:15:16;95968.06;;;-7.47;100.00
2000;BME280;1001;48.87406500;9.59633600;2022-12-18T02:17:48;95978.34;;;-7.49;100.00
2000;BME280;1001;48.87406500;9.59633600;2022-12-18T02:20:20;95964.81;;;-7.49;100.00
2000;BME280;1001;48.87406500;9.59633600;2022-12-18T02:22:59;95971.16;;;-7.30;100.00
2000;BME280;1001;48.87406500;9.59633600;2022-12-18T02:25:40;95974.22;;;-7.25;100.00
2000;BME280;1001;48.87406500;9.59633600;2022-12-18T02:28:13;95980.44;;;-7.16;100.00
2000;BME280;1001;48.87406500;9.59633600;2022-12-18T02:30:42;95980.34;;;-7.15;100.00
2000;BME280;1001;48.87406500;9.59633600;2022-12-18T02:33:11;95980.81;;;-7.10;100.00
2000;BME280;1001;48.87406500;9.59633600;2022-12-18T02:35:40;95985.63;;;-7.18;100.00
2000;BME280;1001;48.87406500;9.59633600;2022-12-18T02:38:09;95989.47;;;-7.25;100.00
2000;BME280;1001;48.87406500;9.59633600;2022-12-18T02:40:36;95981.31;;;-7.30;100.00
2000;BME280;1001;48.87406500;9.59633600;2022-12-18T02:43:07;95979.69;;;-7.31;100.00
2000;BME280;1001;48.87406500;9.59633600;2022-12-18T02:45:37;95974.13;;;-7.36;100.00
2000;BME280;1001;48.87406500;9.59633600;2022-12-18T02:48:12;95970.47;;;-7.32;100.00
2000;BME280;1001;48.87406500;9.59633600;2022-12-18T02:50:44;95979.09;;;-7.34;100.00
2000;BME280;1001;48.87406500;9.59633600;2022-12-18T02:53:17;95976.53;;;-7.34;100.00
2000;BME280;1001;48.87406500;9.59633600;2022-12-18T02:55:56;95991.94;;;-7.50;100.00
2000;BME280;1001;48.87406500;9.59633600;2022-12-18T02:58:30;95991.94;;;-7.50;100.00
2000;BME280;1001;48.87406500;9.59633600;2022-12-18T03:01:03;95997.22;;;-7.53;100.00
2000;BME280;1001;48.87406500;9.59633600;2022-12-18T03:03:36;95992.63;;;-7.61;100.00
2000;BME280;1001;48.87406500;9.59633600;2022-12-18T03:06:08;95996.53;;;-7.55;100.00
2000;BME280;1001;48.87406500;9.59633600;2022-12-18T03:08:38;96005.16;;;-7.57;100.00
2000;BME280;1001;48.87406500;9.59633600;2022-12-18T03:11:08;96006.34;;;-7.63;100.00
2000;BME280;1001;48.87406500;9.59633600;2022-12-18T03:13:37;96010.81;;;-7.67;100.00
2000;BME280;1001;48.87406500;9.59633600;2022-12-18T03:16:10;96001.84;;;-7.72;100.00
2000;BME280;1001;48.87406500;9.59633600;2022-12-18T03:18:38;96000.13;;;-7.72;100.00
2000;BME280;1001;48.87406500;9.59633600;2022-12-18T03:21:10;96001.56;;;-7.68;100.00
2000;BME280;1001;48.87406500;9.59633600;2022-12-18T03:23:40;96002.03;;;-7.75;100.00
2000;BME280;1001;48.87406500;9.59633600;2022-12-18T03:26:10;96006.84;;;-7.85;100.00
2000;BME280;1001;48.87406500;9.59633600;2022-12-18T03:28:40;95998.72;;;-7.90;100.00
2000;BME280;1001;48.87406500;9.59633600;2022-12-18T03:31:11;95996.16;;;-8.02;100.00
2000;BME280;1001;48.87406500;9.59633600;2022-12-18T03:33:42;96003.66;;;-8.01;100.00
2000;BME280;1001;48.87406500;9.59633600;2022-12-18T03:36:12;96010.53;;;-8.03;100.00
2000;BME280;1001;48.87406500;9.59633600;2022-12-18T03:38:38;96007.81;;;-8.00;100.00
2000;BME280;1001;48.87406500;9.59633600;2022-12-18T03:41:10;96012.44;;;-8.06;100.00
2000;BME280;1001;48.87406500;9.59633600;2022-12-18T03:43:46;96010.28;;;-8.12;100.00
2000;BME280;1001;48.87406500;9.59633600;2022-12-18T03:46:24;96006.84;;;-8.25;100.00
2000;BME280;1001;48.87406500;9.59633600;2022-12-18T03:48:58;96007.38;;;-8.33;100.00
2000;BME280;1001;48.87406500;9.59633600;2022-12-18T03:51:29;96011.91;;;-8.38;100.00
2000;BME280;1001;48.87406500;9.59633600;2022-12-18T03:54:00;96017.03;;;-8.40;100.00
2000;BME280;1001;48.87406500;9.59633600;2022-12-18T03:56:30;96008.66;;;-8.40;100.00
2000;BME280;1001;48.87406500;9.59633600;2022-12-18T03:58:59;96010.25;;;-8.39;100.00
2000;BME280;1001;48.87406500;9.59633600;2022-12-18T04:01:31;96007.84;;;-8.41;100.00
2000;BME280;1001;48.87406500;9.59633600;2022-12-18T04:04:00;95997.25;;;-8.47;100.00
2000;BME280;1001;48.87406500;9.59633600;2022-12-18T04:06:28;95998.88;;;-8.46;100.00
2000;BME280;1001;48.87406500;9.59633600;2022-12-18T04:08:56;95997.25;;;-8.47;100.00
2000;BME280;1001;48.87406500;9.59633600;2022-12-18T04:11:23;95988.56;;;-8.57;100.00
2000;BME280;1001;48.87406500;9.59633600;2022-12-18T04:13:50;95992.63;;;-8.55;100.00
2000;BME280;1001;48.87406500;9.59633600;2022-12-18T04:16:21;95993.53;;;-8.56;100.00
2000;BME280;1001;48.87406500;9.59633600;2022-12-18T04:18:49;95986.91;;;-8.58;100.00
2000;BME280;1001;48.87406500;9.59633600;2022-12-18T04:21:16;95990.81;;;-8.67;100.00
2000;BME280;1001;48.87406500;9.59633600;2022-12-18T04:23:42;96001.97;;;-8.69;100.00
2000;BME280;1001;48.87406500;9.59633600;2022-12-18T04:26:09;95994.81;;;-8.77;100.00
2000;BME280;1001;48.87406500;9.59633600;2022-12-18T04:28:36;95994.19;;;-8.80;100.00
2000;BME280;1001;48.87406500;9.59633600;2022-12-18T04:31:03;96001.31;;;-8.87;100.00
2000;BME280;1001;48.87406500;9.59633600;2022-12-18T04:33:30;96003.94;;;-8.88;100.00
2000;BME280;1001;48.87406500;9.59633600;2022-12-18T04:35:58;96013.06;;;-9.00;100.00
2000;BME280;1001;48.87406500;9.59633600;2022-12-18T04:38:24;96010.38;;;-8.97;100.00
2000;BME280;1001;48.87406500;9.59633600;2022-12-18T04:40:51;96002.13;;;-9.01;100.00
2000;BME280;1001;48.87406500;9.59633600;2022-12-18T04:43:18;95996.44;;;-9.04;100.00
2000;BME280;1001;48.87406500;9.59633600;2022-12-18T04:45:44;96000.78;;;-8.92;100.00
2000;BME280;1001;48.87406500;9.59633600;2022-12-18T04:48:12;96011.91;;;-8.94;100.00
2000;BME280;1001;48.87406500;9.59633600;2022-12-18T04:50:38;96006.34;;;-9.01;100.00
2000;BME280;1001;48.87406500;9.59633600;2022-12-18T04:53:06;96011.63;;;-9.04;100.00
2000;BME280;1001;48.87406500;9.59633600;2022-12-18T04:55:33;96013.50;;;-9.08;100.00
2000;BME280;1001;48.87406500;9.59633600;2022-12-18T04:58:00;96016.19;;;-9.11;100.00
2000;BME280;1001;48.87406500;9.59633600;2022-12-18T05:00:27;96014.59;;;-9.12;100.00
2000;BME280;1001;48.87406500;9.59633600;2022-12-18T05:02:53;96011.06;;;-9.09;100.00
2000;BME280;1001;48.87406500;9.59633600;2022-12-18T05:05:20;96006.91;;;-9.10;100.00
2000;BME280;1001;48.87406500;9.59633600;2022-12-18T05:07:47;96022.91;;;-9.10;100.00
2000;BME280;1001;48.87406500;9.59633600;2022-12-18T05:10:15;96012.31;;;-9.16;100.00
2000;BME280;1001;48.87406500;9.59633600;2022-12-18T05:12:42;96004.06;;;-9.20;100.00
2000;BME280;1001;48.87406500;9.59633600;2022-12-18T05:15:22;95995.75;;;-9.22;100.00
2000;BME280;1001;48.87406500;9.59633600;2022-12-18T05:17:49;96006.97;;;-9.26;100.00
2000;BME280;1001;48.87406500;9.59633600;2022-12-18T05:20:16;96012.47;;;-9.33;100.00
2000;BME280;1001;48.87406500;9.59633600;2022-12-18T05:22:43;96012.63;;;-9.36;100.00
2000;BME280;1001;48.87406500;9.59633600;2022-12-18T05:25:10;96010.75;;;-9.33;100.00
2000;BME280;1001;48.87406500;9.59633600;2022-12-18T05:27:38;96007.50;;;-9.35;100.00
2000;BME280;1001;48.87406500;9.59633600;2022-12-18T05:30:05;96009.84;;;-9.32;100.00
2000;BME280;1001;48.87406500;9.59633600;2022-12-18T05:32:33;96002.50;;;-9.36;100.00
2000;BME280;1001;48.87406500;9.59633600;2022-12-18T05:34:59;96005.94;;;-9.37;100.00
2000;BME280;1001;48.87406500;9.59633600;2022-12-18T05:37:26;96016.69;;;-9.34;100.00
2000;BME280;1001;48.87406500;9.59633600;2022-12-18T05:39:53;96005.69;;;-9.33;100.00
2000;BME280;1001;48.87406500;9.59633600;2022-12-18T05:42:20;96001.25;;;-9.29;100.00
2000;BME280;1001;48.87406500;9.59633600;2022-12-18T05:44:48;95996.19;;;-9.29;100.00
2000;BME280;1001;48.87406500;9.59633600;2022-12-18T05:47:14;95999.91;;;-9.35;100.00
2000;BME280;1001;48.87406500;9.59633600;2022-12-18T05:49:41;96005.69;;;-9.33;100.00
2000;BME280;1001;48.87406500;9.59633600;2022-12-18T05:52:08;95999.53;;;-9.29;100.00
2000;BME280;1001;48.87406500;9.59633600;2022-12-18T05:54:35;95994.47;;;-9.29;100.00
2000;BME280;1001;48.87406500;9.59633600;2022-12-18T05:57:01;95995.56;;;-9.33;100.00
2000;BME280;1001;48.87406500;9.59633600;2022-12-18T05:59:28;96004.66;;;-9.44;100.00
2000;BME280;1001;48.87406500;9.59633600;2022-12-18T06:01:56;96010.19;;;-9.38;100.00
2000;BME280;1001;48.87406500;9.59633600;2022-12-18T06:04:23;96006.56;;;-9.34;100.00
2000;BME280;1001;48.87406500;9.59633600;2022-12-18T06:06:49;96013.34;;;-9.34;100.00
2000;BME280;1001;48.87406500;9.59633600;2022-12-18T06:09:16;96019.41;;;-9.37;100.00
2000;BME280;1001;48.87406500;9.59633600;2022-12-18T06:11:43;96029.53;;;-9.37;100.00
2000;BME280;1001;48.87406500;9.59633600;2022-12-18T06:14:09;96024.28;;;-9.34;100.00
2000;BME280;1001;48.87406500;9.59633600;2022-12-18T06:16:36;96021.22;;;-9.39;100.00
2000;BME280;1001;48.87406500;9.59633600;2022-12-18T06:19:05;96025.22;;;-9.35;100.00
2000;BME280;1001;48.87406500;9.59633600;2022-12-18T06:21:32;96012.88;;;-9.41;100.00
2000;BME280;1001;48.87406500;9.59633600;2022-12-18T06:24:00;96006.56;;;-9.34;100.00
2000;BME280;1001;48.87406500;9.59633600;2022-12-18T06:26:27;96019.50;;;-9.38;100.00
2000;BME280;1001;48.87406500;9.59633600;2022-12-18T06:28:53;96020.88;;;-9.33;100.00
2000;BME280;1001;48.87406500;9.59633600;2022-12-18T06:31:20;96024.94;;;-9.30;100.00
2000;BME280;1001;48.87406500;9.59633600;2022-12-18T06:33:47;96017.63;;;-9.35;100.00
2000;BME280;1001;48.87406500;9.59633600;2022-12-18T06:36:15;96029.31;;;-9.48;100.00
2000;BME280;1001;48.87406500;9.59633600;2022-12-18T06:38:43;96021.72;;;-9.48;100.00
2000;BME280;1001;48.87406500;9.59633600;2022-12-18T06:41:11;96027.78;;;-9.50;100.00
2000;BME280;1001;48.87406500;9.59633600;2022-12-18T06:43:38;96022.03;;;-9.38;100.00
2000;BME280;1001;48.87406500;9.59633600;2022-12-18T06:46:05;96030.59;;;-9.41;100.00
2000;BME280;1001;48.87406500;9.59633600;2022-12-18T06:48:33;96022.03;;;-9.38;100.00
2000;BME280;1001;48.87406500;9.59633600;2022-12-18T06:51:00;96032.97;;;-9.38;100.00
2000;BME280;1001;48.87406500;9.59633600;2022-12-18T06:53:28;96027.84;;;-9.22;100.00
2000;BME280;1001;48.87406500;9.59633600;2022-12-18T06:56:00;96025.94;;;-9.33;100.00
2000;BME280;1001;48.87406500;9.59633600;2022-12-18T06:58:27;96034.53;;;-9.35;100.00
2000;BME280;1001;48.87406500;9.59633600;2022-12-18T07:00:59;96036.88;;;-9.32;100.00
2000;BME280;1001;48.87406500;9.59633600;2022-12-18T07:03:26;96033.56;;;-9.19;100.00
2000;BME280;1001;48.87406500;9.59633600;2022-12-18T07:05:53;96032.03;;;-9.21;100.00
2000;BME280;1001;48.87406500;9.59633600;2022-12-18T07:08:20;96035.72;;;-9.27;100.00
2000;BME280;1001;48.87406500;9.59633600;2022-12-18T07:10:48;96046.41;;;-9.22;100.00
2000;BME280;1001;48.87406500;9.59633600;2022-12-18T07:13:15;96063.59;;;-9.13;100.00
2000;BME280;1001;48.87406500;9.59633600;2022-12-18T07:15:42;96057.81;;;-9.15;100.00
2000;BME280;1001;48.87406500;9.59633600;2022-12-18T07:18:09;96069.13;;;-9.06;100.00
2000;BME280;1001;48.87406500;9.59633600;2022-12-18T07:20:36;96062.34;;;-9.06;100.00
2000;BME280;1001;48.87406500;9.59633600;2022-12-18T07:23:02;96060.06;;;-9.10;100.00
2000;BME280;1001;48.87406500;9.59633600;2022-12-18T07:25:30;96063.69;;;-9.14;100.00
2000;BME280;1001;48.87406500;9.59633600;2022-12-18T07:27:58;96075.09;;;-9.07;100.00
2000;BME280;1001;48.87406500;9.59633600;2022-12-18T07:30:25;96075.56;;;-9.01;100.00
2000;BME280;1001;48.87406500;9.59633600;2022-12-18T07:32:52;96078.13;;;-8.86;100.00
2000;BME280;1001;48.87406500;9.59633600;2022-12-18T07:35:18;96084.84;;;-8.85;100.00
2000;BME280;1001;48.87406500;9.59633600;2022-12-18T07:37:45;96084.19;;;-8.89;100.00
2000;BME280;1001;48.87406500;9.59633600;2022-12-18T07:40:12;96076.72;;;-8.76;100.00
2000;BME280;1001;48.87406500;9.59633600;2022-12-18T07:42:38;96076.06;;;-8.80;100.00
2000;BME280;1001;48.87406500;9.59633600;2022-12-18T07:45:07;96080.34;;;-8.66;100.00
2000;BME280;1001;48.87406500;9.59633600;2022-12-18T07:47:34;96084.59;;;-8.67;100.00
2000;BME280;1001;48.87406500;9.59633600;2022-12-18T07:50:02;96088.41;;;-8.60;100.00
2000;BME280;1001;48.87406500;9.59633600;2022-12-18T07:52:29;96070.13;;;-8.51;100.00
2000;BME280;1001;48.87406500;9.59633600;2022-12-18T07:54:56;96087.44;;;-8.29;100.00
2000;BME280;1001;48.87406500;9.59633600;2022-12-18T07:57:22;96077.34;;;-8.16;100.00
2000;BME280;1001;48.87406500;9.59633600;2022-12-18T07:59:49;96088.41;;;-8.32;100.00
2000;BME280;1001;48.87406500;9.59633600;2022-12-18T08:02:17;96083.97;;;-8.14;100.00
2000;BME280;1001;48.87406500;9.59633600;2022-12-18T08:04:43;96096.53;;;-8.12;100.00
2000;BME280;1001;48.87406500;9.59633600;2022-12-18T08:07:10;96091.63;;;-8.01;100.00
2000;BME280;1001;48.87406500;9.59633600;2022-12-18T08:09:37;96084.97;;;-7.76;100.00
2000;BME280;1001;48.87406500;9.59633600;2022-12-18T08:12:04;96094.47;;;-7.65;100.00
2000;BME280;1001;48.87406500;9.59633600;2022-12-18T08:14:31;96095.53;;;-7.55;100.00
2000;BME280;1001;48.87406500;9.59633600;2022-12-18T08:16:58;96096.25;;;-7.53;100.00
2000;BME280;1001;48.87406500;9.59633600;2022-12-18T08:19:26;96098.72;;;-7.66;100.00
2000;BME280;1001;48.87406500;9.59633600;2022-12-18T08:21:52;96105.25;;;-7.62;100.00
2000;BME280;1001;48.87406500;9.59633600;2022-12-18T08:24:19;96105.41;;;-7.50;100.00
2000;BME280;1001;48.87406500;9.59633600;2022-12-18T08:26:46;96091.81;;;-7.64;100.00
2000;BME280;1001;48.87406500;9.59633600;2022-12-18T08:29:12;96083.94;;;-7.59;100.00
2000;BME280;1001;48.87406500;9.59633600;2022-12-18T08:31:39;96091.25;;;-7.54;100.00
2000;BME280;1001;48.87406500;9.59633600;2022-12-18T08:34:07;96091.19;;;-7.53;100.00
2000;BME280;1001;48.87406500;9.59633600;2022-12-18T08:36:35;96088.91;;;-7.31;100.00
2000;BME280;1001;48.87406500;9.59633600;2022-12-18T08:39:02;96092.44;;;-7.19;100.00
2000;BME280;1001;48.87406500;9.59633600;2022-12-18T08:41:29;96093.66;;;-7.12;100.00
2000;BME280;1001;48.87406500;9.59633600;2022-12-18T08:43:55;96097.44;;;-7.05;100.00
2000;BME280;1001;48.87406500;9.59633600;2022-12-18T08:46:54;96098.25;;;-7.05;100.00
2000;BME280;1001;48.87406500;9.59633600;2022-12-18T08:49:21;96094.91;;;-6.93;100.00
2000;BME280;1001;48.87406500;9.59633600;2022-12-18T08:51:54;96094.38;;;-6.98;100.00
2000;BME280;1001;48.87406500;9.59633600;2022-12-18T08:54:20;96095.25;;;-6.84;100.00
2000;BME280;1001;48.87406500;9.59633600;2022-12-18T08:56:47;96096.38;;;-6.76;100.00
2000;BME280;1001;48.87406500;9.59633600;2022-12-18T08:59:15;96101.16;;;-6.84;100.00
2000;BME280;1001;48.87406500;9.59633600;2022-12-18T09:01:41;96102.06;;;-6.60;100.00
2000;BME280;1001;48.87406500;9.59633600;2022-12-18T09:04:08;96097.09;;;-6.61;100.00
2000;BME280;1001;48.87406500;9.59633600;2022-12-18T09:06:36;96102.50;;;-6.41;100.00
2000;BME280;1001;48.87406500;9.59633600;2022-12-18T09:09:04;96110.25;;;-6.30;100.00
2000;BME280;1001;48.87406500;9.59633600;2022-12-18T09:11:32;96111.34;;;-6.34;100.00
2000;BME280;1001;48.87406500;9.59633600;2022-12-18T09:14:00;96102.31;;;-6.25;100.00
2000;BME280;1001;48.87406500;9.59633600;2022-12-18T09:16:28;96099.53;;;-6.09;100.00
2000;BME280;1001;48.87406500;9.59633600;2022-12-18T09:18:55;96092.28;;;-5.90;100.00
2000;BME280;1001;48.87406500;9.59633600;2022-12-18T09:21:26;96089.63;;;-5.89;100.00
2000;BME280;1001;48.87406500;9.59633600;2022-12-18T09:23:54;96082.84;;;-5.77;100.00
2000;BME280;1001;48.87406500;9.59633600;2022-12-18T09:26:23;96073.38;;;-5.75;100.00
2000;BME280;1001;48.87406500;9.59633600;2022-12-18T09:28:50;96076.63;;;-5.73;100.00
2000;BME280;1001;48.87406500;9.59633600;2022-12-18T09:31:18;96088.13;;;-5.68;100.00
2000;BME280;1001;48.87406500;9.59633600;2022-12-18T09:33:45;96077.84;;;-5.66;100.00
2000;BME280;1001;48.87406500;9.59633600;2022-12-18T09:36:14;96085.41;;;-5.54;100.00
2000;BME280;1001;48.87406500;9.59633600;2022-12-18T09:38:42;96080.25;;;-5.52;100.00
2000;BME280;1001;48.87406500;9.59633600;2022-12-18T09:41:20;96092.16;;;-5.53;100.00
2000;BME280;1001;48.87406500;9.59633600;2022-12-18T09:43:55;96088.75;;;-5.40;100.00
2000;BME280;1001;48.87406500;9.59633600;2022-12-18T09:46:26;96089.47;;;-5.38;100.00
2000;BME280;1001;48.87406500;9.59633600;2022-12-18T09:48:56;96091.09;;;-5.37;100.00
2000;BME280;1001;48.87406500;9.59633600;2022-12-18T09:51:28;96087.34;;;-5.21;100.00
2000;BME280;1001;48.87406500;9.59633600;2022-12-18T09:53:59;96079.81;;;-5.22;100.00
2000;BME280;1001;48.87406500;9.59633600;2022-12-18T09:56:29;96087.44;;;-4.99;100.00
2000;BME280;1001;48.87406500;9.59633600;2022-12-18T09:59:03;96067.38;;;-5.03;100.00
2000;BME280;1001;48.87406500;9.59633600;2022-12-18T10:01:32;96081.66;;;-4.90;100.00
2000;BME280;1001;48.87406500;9.59633600;2022-12-18T10:03:59;96076.69;;;-4.91;100.00
2000;BME280;1001;48.87406500;9.59633600;2022-12-18T10:06:29;96068.41;;;-4.71;100.00
2000;BME280;1001;48.87406500;9.59633600;2022-12-18T10:09:01;96065.00;;;-4.83;100.00
2000;BME280;1001;48.87406500;9.59633600;2022-12-18T10:11:39;96067.25;;;-4.67;100.00
2000;BME280;1001;48.87406500;9.59633600;2022-12-18T10:14:16;96061.47;;;-4.58;100.00
2000;BME280;1001;48.87406500;9.59633600;2022-12-18T10:16:55;96071.13;;;-4.50;100.00
2000;BME280;1001;48.87406500;9.59633600;2022-12-18T10:19:39;96052.56;;;-4.41;100.00
2000;BME280;1001;48.87406500;9.59633600;2022-12-18T10:22:21;96061.72;;;-4.39;100.00
2000;BME280;1001;48.87406500;9.59633600;2022-12-18T10:24:55;96071.47;;;-4.33;100.00
2000;BME280;1001;48.87406500;9.59633600;2022-12-18T10:27:26;96068.25;;;-4.24;100.00
2000;BME280;1001;48.87406500;9.59633600;2022-12-18T10:29:55;96072.88;;;-4.18;100.00
2000;BME280;1001;48.87406500;9.59633600;2022-12-18T10:32:23;96070.13;;;-4.15;100.00
2000;BME280;1001;48.87406500;9.59633600;2022-12-18T10:34:53;96068.25;;;-4.13;100.00
2000;BME280;1001;48.87406500;9.59633600;2022-12-18T10:37:22;96076.47;;;-4.09;100.00
2000;BME280;1001;48.87406500;9.59633600;2022-12-18T10:40:07;96071.63;;;-4.12;100.00
2000;BME280;1001;48.87406500;9.59633600;2022-12-18T10:42:35;96077.78;;;-4.03;100.00
2000;BME280;1001;48.87406500;9.59633600;2022-12-18T10:45:08;96077.88;;;-3.94;100.00
2000;BME280;1001;48.87406500;9.59633600;2022-12-18T10:47:35;96075.31;;;-3.83;100.00
2000;BME280;1001;48.87406500;9.59633600;2022-12-18T10:50:03;96079.28;;;-3.79;100.00
2000;BME280;1001;48.87406500;9.59633600;2022-12-18T10:52:30;96088.09;;;-3.83;100.00
2000;BME280;1001;48.87406500;9.59633600;2022-12-18T10:54:59;96100.41;;;-3.77;100.00
2000;BME280;1001;48.87406500;9.59633600;2022-12-18T10:57:33;96099.69;;;-3.57;100.00
2000;BME280;1001;48.87406500;9.59633600;2022-12-18T11:00:21;96098.63;;;-3.54;100.00
2000;BME280;1001;48.87406500;9.59633600;2022-12-18T11:02:49;96100.56;;;-3.35;100.00
2000;BME280;1001;48.87406500;9.59633600;2022-12-18T11:05:26;96113.16;;;-3.55;100.00
2000;BME280;1001;48.87406500;9.59633600;2022-12-18T11:07:54;96096.88;;;-3.42;100.00
2000;BME280;1001;48.87406500;9.59633600;2022-12-18T11:10:27;96096.19;;;-3.45;100.00
2000;BME280;1001;48.87406500;9.59633600;2022-12-18T11:12:54;96092.31;;;-3.28;100.00
2000;BME280;1001;48.87406500;9.59633600;2022-12-18T11:15:27;96090.34;;;-3.24;100.00
2000;BME280;1001;48.87406500;9.59633600;2022-12-18T11:17:56;96081.34;;;-3.19;100.00
2000;BME280;1001;48.87406500;9.59633600;2022-12-18T11:20:31;96086.09;;;-3.14;99.81
2000;BME280;1001;48.87406500;9.59633600;2022-12-18T11:22:59;96071.72;;;-3.15;100.00
2000;BME280;1001;48.87406500;9.59633600;2022-12-18T11:25:26;96074.88;;;-3.23;100.00
2000;BME280;1001;48.87406500;9.59633600;2022-12-18T11:27:55;96060.34;;;-3.22;99.93
2000;BME280;1001;48.87406500;9.59633600;2022-12-18T11:30:26;96068.66;;;-3.09;99.76
2000;BME280;1001;48.87406500;9.59633600;2022-12-18T11:32:55;96077.38;;;-3.12;99.23
2000;BME280;1001;48.87406500;9.59633600;2022-12-18T11:35:34;96071.81;;;-3.17;99.93
2000;BME280;1001;48.87406500;9.59633600;2022-12-18T11:38:06;96066.78;;;-3.07;100.00
2000;BME280;1001;48.87406500;9.59633600;2022-12-18T11:40:42;96076.22;;;-3.08;99.77
2000;BME280;1001;48.87406500;9.59633600;2022-12-18T11:43:14;96071.66;;;-3.04;99.53
2000;BME280;1001;48.87406500;9.59633600;2022-12-18T11:45:50;96069.16;;;-3.26;99.33
2000;BME280;1001;48.87406500;9.59633600;2022-12-18T11:48:21;96067.41;;;-3.15;99.70